Flight Track Log - Related Links

Times and Time Zones

All times are in EDT time to prevent confusion due to time zone crossing. See the DAL571 flight status page for this flight to view local times or setup timezone preferences in your user account.


Time Position Orientation Groundspeed Altitude Reporting Facility
EDT Latitude Longitude Course Direction KTS MPH feet Rate Location/Type
Tue 10:22:31 AM 33.6333 -84.4000 145° Southeast 178 205 2,200  Level Atlanta TRACON
Tue 10:23:31 AM 33.6167 -84.3167 103° East 240 276 4,200 2,350 Climbing Atlanta TRACON
Tue 10:24:31 AM 33.5667 -84.2833 151° Southeast 281 323 6,900 2,260 Climbing Atlanta TRACON
Tue 10:25:00 AM 33.3448 -84.2281 140° Southeast  Level FlightAware Approximate
Tue 10:26:00 AM 33.2423 -84.1254 140° Southeast  Level FlightAware Approximate
Tue 10:26:05 AM 33.4517 -84.2778 178° South 280 322 10,000  Level Atlanta Center
Tue 10:27:00 AM 33.1398 -84.0230 140° Southeast  Level FlightAware Approximate
Tue 10:27:05 AM 33.3683 -84.2603 170° South 291 335 11,000  Level Atlanta Center
Tue 10:28:00 AM 33.0388 -83.9294 145° Southeast  Level FlightAware Approximate
Tue 10:28:05 AM 33.2892 -84.1806 140° Southeast 338 389 12,800  Level Atlanta Center
Tue 10:29:05 AM 33.2036 -84.0933 140° Southeast 377 434 15,200 2,250 Climbing Atlanta Center
Tue 10:30:05 AM 33.1117 -84.0067 142° Southeast 418 481 17,300 10,400 Climbing Atlanta Center
Tue 10:31:05 AM 33.0136 -83.9175 143° Southeast 429 494 36,000 2,050 Climbing Atlanta Center
Tue 10:32:05 AM 32.9111 -83.8358 146° Southeast 441 507 21,400 -6,450 Descending Atlanta Center
Tue 10:33:05 AM 32.8086 -83.7472 144° Southeast 452 520 23,100 1,750 Climbing Atlanta Center
Tue 10:34:05 AM 32.7019 -83.6611 146° Southeast 457 526 24,900 1,600 Climbing Atlanta Center
Tue 10:35:05 AM 32.5994 -83.5581 140° Southeast 469 540 26,300 1,150 Climbing Atlanta Center
Tue 10:36:05 AM 32.4861 -83.4453 140° Southeast 479 551 27,200 950 Climbing Atlanta Center
Tue 10:37:05 AM 32.3769 -83.3331 139° Southeast 499 574 28,200 1,150 Climbing Atlanta Center
Tue 10:38:05 AM 32.2678 -83.2233 140° Southeast 509 586 29,500 1,280 Climbing Atlanta Center
Tue 10:38:20 AM 32.2475 -83.2044 142° Southeast 508 585 29,800 1,280 Climbing Jacksonville Center
Tue 10:39:20 AM 32.1350 -83.0914 140° Southeast 513 590 31,100 1,250 Climbing Jacksonville Center
Tue 10:40:20 AM 32.0225 -82.9833 141° Southeast 518 596 32,300 1,300 Climbing Jacksonville Center
Tue 10:41:20 AM 31.9097 -82.8731 140° Southeast 524 603 33,700 850 Climbing Jacksonville Center
Tue 10:42:20 AM 31.7989 -82.7631 140° Southeast 524 603 34,000 150 Climbing Jacksonville Center
Tue 10:43:20 AM 31.6839 -82.6508 140° Southeast 524 603 34,000  Level Jacksonville Center
Tue 10:44:20 AM 31.5689 -82.5414 141° Southeast 524 603 34,000  Level Jacksonville Center
Tue 10:45:20 AM 31.4411 -82.4275 143° Southeast 529 609 34,000 50 Level Jacksonville Center
Tue 10:46:20 AM 31.3217 -82.3283 145° Southeast 529 609 34,100 750 Climbing Jacksonville Center
Tue 10:47:20 AM 31.2022 -82.2319 145° Southeast 529 609 35,500 950 Climbing Jacksonville Center
Tue 10:48:20 AM 31.0869 -82.1358 144° Southeast 524 603 36,000 250 Climbing Jacksonville Center
Tue 10:49:20 AM 30.9672 -82.0350 144° Southeast 524 603 36,000  Level Jacksonville Center
Tue 10:50:20 AM 30.8497 -81.9367 144° Southeast 524 603 36,000  Level Jacksonville Center
Tue 10:51:20 AM 30.7319 -81.8364 144° Southeast 524 603 36,000  Level Jacksonville Center
Tue 10:52:20 AM 30.6119 -81.7364 144° Southeast 524 603 36,000  Level Jacksonville Center
Tue 10:53:20 AM 30.4881 -81.6536 150° Southeast 519 597 36,000  Level Jacksonville Center
Tue 10:54:20 AM 30.3619 -81.5708 150° Southeast 519 597 36,000  Level Jacksonville Center
Tue 10:55:20 AM 30.2381 -81.4908 151° Southeast 519 597 36,000  Level Jacksonville Center
Tue 10:56:20 AM 30.1158 -81.4133 151° Southeast 508 585 36,000  Level Jacksonville Center
Tue 10:57:20 AM 29.9939 -81.3361 151° Southeast 503 579 36,000  Level Jacksonville Center
Tue 10:58:20 AM 29.8719 -81.2592 151° Southeast 503 579 36,000  Level Jacksonville Center
Tue 10:59:21 AM 29.7561 -81.1844 151° Southeast 498 573 36,000  Level Jacksonville Center
Tue 11:00:20 AM 29.6339 -81.1100 152° Southeast 498 573 36,000  Level Jacksonville Center
Tue 11:01:20 AM 29.5161 -81.0336 151° Southeast 493 567 36,000  Level Jacksonville Center
Tue 11:02:20 AM 29.4000 -80.9569 150° Southeast 493 567 36,000  Level Jacksonville Center
Tue 11:03:20 AM 29.2800 -80.8808 151° Southeast 483 556 36,000  Level Jacksonville Center
Tue 11:04:28 AM 29.1519 -80.8008 151° Southeast 463 533 36,000  Level Miami Center
Tue 11:05:28 AM 29.0331 -80.7278 152° Southeast 475 547 36,000  Level Miami Center
Tue 11:06:28 AM 28.9119 -80.6525 151° Southeast 486 559 36,000  Level Miami Center
Tue 11:07:28 AM 28.8003 -80.5350 137° Southeast 497 572 36,000  Level Miami Center
Tue 11:08:28 AM 28.7181 -80.4044 126° Southeast 503 579 36,000  Level Miami Center
Tue 11:09:28 AM 28.6419 -80.2742 124° Southeast 510 587 36,000  Level Miami Center
Tue 11:10:28 AM 28.5675 -80.1514 125° Southeast 510 587 36,000  Level Miami Center
Tue 11:11:28 AM 28.4872 -80.0192 125° Southeast 515 593 36,000  Level Miami Center
Tue 11:12:28 AM 28.4022 -79.8894 127° Southeast 515 593 36,000  Level Miami Center
Tue 11:13:28 AM 28.3236 -79.7553 124° Southeast 515 593 36,000  Level Miami Center
Tue 11:14:28 AM 28.2428 -79.6211 124° Southeast 515 593 36,000  Level Miami Center
Tue 11:15:28 AM 28.1617 -79.4872 124° Southeast 515 593 36,000  Level Miami Center
Tue 11:16:28 AM 28.0828 -79.3561 124° Southeast 515 593 36,000  Level Miami Center
Tue 11:17:28 AM 27.9994 -79.2225 125° Southeast 515 593 36,000  Level Miami Center
Tue 11:18:28 AM 27.9158 -79.0939 126° Southeast 515 593 36,000  Level Miami Center
Tue 11:19:28 AM 27.8364 -78.9561 123° Southeast 520 598 36,000 200 Level Miami Center
Tue 11:20:28 AM 27.7569 -78.8256 124° Southeast 520 598 36,400 500 Climbing Miami Center
Tue 11:21:28 AM 27.6731 -78.6950 126° Southeast 520 598 37,000 300 Climbing Miami Center
Tue 11:22:28 AM 27.5889 -78.5647 126° Southeast 515 593 37,000  Level Miami Center
Tue 11:23:28 AM 27.5133 -78.4256 121° Southeast 515 593 37,000  Level Miami Center
Tue 11:24:28 AM 27.4353 -78.2958 124° Southeast 514 592 37,000  Level Miami Center
Tue 11:25:28 AM 27.3406 -78.1519 127° Southeast 514 592 37,000  Level Miami Center
Tue 11:26:28 AM 27.2517 -78.0342 130° Southeast 508 585 37,000  Level Miami Center
Tue 11:27:28 AM 27.1775 -77.9211 126° Southeast 508 585 37,000  Level Miami Center
Tue 11:28:28 AM 27.0925 -77.7897 126° Southeast 510 587 37,000  Level Miami Center
Tue 11:29:28 AM 27.0056 -77.6631 128° Southeast 510 587 37,000  Level Miami Center
Tue 11:30:28 AM 26.9206 -77.5344 127° Southeast 510 587 37,000  Level Miami Center
Tue 11:31:28 AM 26.8272 -77.3894 126° Southeast 516 594 37,000  Level Miami Center
Tue 11:32:28 AM 26.7400 -77.2681 129° Southeast 511 588 37,000  Level Miami Center
Tue 11:33:28 AM 26.6525 -77.1378 127° Southeast 511 588 37,000  Level Miami Center
Tue 11:34:28 AM 26.5650 -77.0097 127° Southeast 516 594 37,000  Level Miami Center
Tue 11:35:28 AM 26.4792 -76.8842 127° Southeast 516 594 37,000  Level Miami Center
Tue 11:36:28 AM 26.3914 -76.7542 127° Southeast 516 594 37,000  Level Miami Center
Tue 11:37:28 AM 26.3014 -76.6269 128° Southeast 511 588 37,000  Level Miami Center
Tue 11:38:28 AM 26.2156 -76.4997 127° Southeast 511 588 37,000  Level Miami Center
Tue 11:39:28 AM 26.1294 -76.3797 129° Southeast 505 581 37,000  Level Miami Center
Tue 11:40:28 AM 26.0433 -76.2528 127° Southeast 510 587 37,000  Level Miami Center
Tue 11:41:28 AM 25.9550 -76.1283 128° Southeast 510 587 37,000  Level Miami Center
Tue 11:42:28 AM 25.8686 -76.0042 128° Southeast 505 581 37,000  Level Miami Center
Tue 11:43:28 AM 25.7864 -75.8800 126° Southeast 510 587 37,000  Level Miami Center
Tue 11:44:28 AM 25.7019 -75.7608 128° Southeast 510 587 37,000  Level Miami Center
Tue 11:45:28 AM 25.6175 -75.6350 127° Southeast 510 587 37,000  Level Miami Center
Tue 11:46:28 AM 25.5264 -75.5139 130° Southeast 510 587 37,000  Level Miami Center
Tue 11:47:28 AM 25.4586 -75.4156 127° Southeast 505 581 37,000  Level Miami Center
Tue 11:48:28 AM 25.3592 -75.2811 129° Southeast 505 581 37,000  Level Miami Center
Tue 11:49:28 AM 25.2742 -75.1606 128° Southeast 511 588 37,000  Level Miami Center
Tue 11:50:28 AM 25.1847 -75.0353 128° Southeast 511 588 37,000  Level Miami Center
Tue 11:51:28 AM 25.0975 -74.9128 128° Southeast 511 588 37,000  Level Miami Center
Tue 11:52:28 AM 25.0103 -74.7903 128° Southeast 506 582 37,000  Level Miami Center
Tue 11:53:28 AM 24.9206 -74.6658 128° Southeast 512 589 37,000  Level Miami Center
Tue 11:54:28 AM 24.8331 -74.5439 128° Southeast 512 589 37,000  Level Miami Center
Tue 11:55:28 AM 24.7433 -74.4219 129° Southeast 506 582 37,000  Level Miami Center
Tue 11:56:28 AM 24.6578 -74.3025 128° Southeast 511 588 37,000  Level Miami Center
Tue 11:57:28 AM 24.5678 -74.1786 129° Southeast 506 582 37,000  Level Miami Center
Tue 11:58:28 AM 24.4822 -74.0619 129° Southeast 506 582 37,000  Level Miami Center
Tue 11:59:28 AM 24.3900 -73.9383 129° Southeast 511 588 37,000  Level Miami Center
Tue 12:00:28 PM 24.2931 -73.8061 129° Southeast 511 588 37,000  Level Miami Center
Tue 12:01:28 PM 24.2050 -73.6853 129° Southeast 506 582 37,000  Level Miami Center
Tue 12:02:28 PM 24.1167 -73.5625 128° Southeast 512 589 37,000  Level Miami Center
Tue 12:03:28 PM 24.0261 -73.4419 129° Southeast 512 589 37,000  Level Miami Center
Tue 12:04:28 PM 23.9336 -73.3219 130° Southeast 512 589 37,000  Level Miami Center
Tue 12:05:28 PM 23.8450 -73.2017 129° Southeast 507 583 37,000  Level Miami Center
Tue 12:06:28 PM 23.7606 -73.0861 129° Southeast 507 583 37,000  Level Miami Center
Tue 12:07:28 PM 23.6719 -72.9686 129° Southeast 501 577 37,000  Level Miami Center
Tue 12:08:28 PM 23.5831 -72.8467 128° Southeast 509 586 37,000  Level Miami Center
Tue 12:09:28 PM 23.4922 -72.7317 131° Southeast 509 586 37,000  Level Miami Center
Tue 12:10:28 PM 23.4053 -72.6081 127° Southeast 509 586 37,000  Level Miami Center
Tue 12:11:28 PM 23.3142 -72.4911 130° Southeast 509 586 37,000  Level Miami Center
Tue 12:12:28 PM 23.2106 -72.3703 133° Southeast 522 601 37,000  Level Miami Center
Tue 12:13:28 PM 23.1358 -72.2533 125° Southeast 505 581 37,000  Level Miami Center
Tue 12:14:28 PM 23.0447 -72.1369 130° Southeast 505 581 37,000  Level Miami Center
Tue 12:15:28 PM 22.9594 -72.0183 128° Southeast 510 587 37,000  Level Miami Center
Tue 12:16:28 PM 22.8681 -71.9025 131° Southeast 510 587 37,000  Level Miami Center
Tue 12:17:28 PM 22.7783 -71.7822 129° Southeast 510 587 37,000  Level Miami Center
Tue 12:18:28 PM 22.6908 -71.6642 129° Southeast 510 587 37,000  Level Miami Center
Tue 12:19:28 PM 22.6014 -71.5508 131° Southeast 510 587 37,000  Level Miami Center
Tue 12:20:28 PM 22.5225 -71.4461 129° Southeast 510 587 37,000  Level Miami Center
Tue 12:21:28 PM 22.4350 -71.3331 130° Southeast 505 581 37,000  Level Miami Center
Tue 12:22:28 PM 22.3450 -71.2158 130° Southeast 505 581 37,000  Level Miami Center
Tue 12:23:28 PM 22.2572 -71.1006 129° Southeast 510 587 37,000  Level Miami Center
Tue 12:24:28 PM 22.1675 -70.9858 130° Southeast 510 587 37,000  Level Miami Center
Tue 12:25:28 PM 22.0753 -70.8692 130° Southeast 510 587 37,000  Level Miami Center
Tue 12:26:39 PM 21.9850 -70.7503 129° Southeast 510 587 37,000  Level Miami Center
Tue 12:27:40 PM 21.8750 -70.6100 130° Southeast 510 587 37,000  Level Miami Center
Tue 12:28:40 PM 21.7806 -70.4961 132° Southeast 510 587 37,000  Level Miami Center
Tue 12:29:40 PM 21.6922 -70.3800 129° Southeast 510 587 37,000  Level Miami Center
Tue 12:30:40 PM 21.5997 -70.2639 131° Southeast 510 587 37,000  Level Miami Center
Tue 12:31:40 PM 21.5072 -70.1483 131° Southeast 510 587 37,000  Level Miami Center
Tue 12:32:40 PM 21.4125 -70.0350 132° Southeast 510 587 37,000  Level Miami Center
Tue 12:33:40 PM 21.3261 -69.9194 129° Southeast 510 587 37,000  Level Miami Center
Tue 12:34:40 PM 21.2333 -69.8064 131° Southeast 510 587 37,000  Level Miami Center
Tue 12:35:40 PM 21.1428 -69.6933 131° Southeast 510 587 37,000  Level Miami Center
Tue 12:36:40 PM 21.0497 -69.5761 130° Southeast 510 587 37,000  Level Miami Center
Tue 12:37:40 PM 20.9589 -69.4614 130° Southeast 510 587 37,000  Level Miami Center
Tue 12:38:40 PM 20.8678 -69.3467 130° Southeast 510 587 37,000  Level Miami Center
Tue 12:39:40 PM 20.7681 -69.2236 131° Southeast 510 587 37,000  Level Miami Center
Tue 12:40:40 PM 20.6750 -69.1114 132° Southeast 510 587 37,000  Level Miami Center
Tue 12:41:40 PM 20.5819 -68.9975 131° Southeast 510 587 37,000  Level Miami Center
Tue 12:42:40 PM 20.4928 -68.8831 130° Southeast 510 587 37,000  Level Miami Center
Tue 12:43:40 PM 20.3997 -68.7739 132° Southeast 510 587 37,000  Level Miami Center
Tue 12:44:40 PM 20.3106 -68.6597 130° Southeast 510 587 37,000  Level Miami Center
Tue 12:45:40 PM 20.2169 -68.5464 131° Southeast 510 587 37,000  Level Miami Center
Tue 12:46:40 PM 20.1300 -68.4347 130° Southeast 505 581 37,000 -500 Level Miami Center
Tue 12:47:40 PM 20.0344 -68.3261 133° Southeast 505 581 36,000 -1,000 Descending Miami Center
Tue 12:48:40 PM 19.9450 -68.2128 130° Southeast 510 587 35,000 -500 Descending Miami Center
Tue 12:49:40 PM 19.8514 -68.0978 131° Southeast 510 587 35,000  Level Miami Center
Tue 12:50:05 PM 19.8167 -68.0333 120° Southeast 510 587 35,000  Level San Juan Center
Tue 12:51:05 PM 19.7167 -67.9333 137° Southeast 510 587 35,000  Level San Juan Center
Tue 12:52:05 PM 19.6500 -67.8000 118° Southeast 510 587 35,000  Level San Juan Center
Tue 12:53:06 PM 19.5833 -67.6500 115° Southeast 520 598 35,000  Level San Juan Center
Tue 12:54:06 PM 19.5333 -67.5167 112° Southeast 520 598 35,000  Level San Juan Center
Tue 12:55:06 PM 19.4833 -67.3667 109° East 520 598 35,000  Level San Juan Center
Tue 12:56:07 PM 19.4167 -67.2333 118° Southeast 510 587 35,000  Level San Juan Center
Tue 12:57:07 PM 19.3667 -67.0833 109° East 510 587 35,000  Level San Juan Center
Tue 12:58:07 PM 19.3167 -66.9500 112° Southeast 520 598 35,000 -650 Level San Juan Center
Tue 12:59:07 PM 19.2500 -66.8000 115° Southeast 520 598 33,700 -1,200 Descending San Juan Center
Tue 01:00:07 PM 19.2000 -66.6667 112° Southeast 520 598 32,600 -992 Descending San Juan Center
Tue 01:01:08 PM 19.1333 -66.5333 118° Southeast 520 598 31,700 -1,587 Descending San Juan Center
Tue 01:02:08 PM 19.0833 -66.3667 108° East 520 598 29,400 -2,650 Descending San Juan Center
Tue 01:03:08 PM 19.0333 -66.2333 112° Southeast 510 587 26,400 -2,777 Descending San Juan Center
Tue 01:04:09 PM 18.9667 -66.1000 118° Southeast 490 564 23,800 -2,579 Descending San Juan Center
Tue 01:05:09 PM 18.9167 -65.9667 112° Southeast 480 552 21,200 -2,600 Descending San Juan Center
Tue 01:06:09 PM 18.8667 -65.8500 114° Southeast 450 518 18,600 -2,500 Descending San Juan Center
Tue 01:07:09 PM 18.8167 -65.7333 114° Southeast 440 506 16,200 -2,380 Descending San Juan Center
Tue 01:08:10 PM 18.7833 -65.6167 107° East 410 472 13,800 -2,182 Descending San Juan Center
Tue 01:09:10 PM 18.7333 -65.5167 118° Southeast 400 460 11,800 -2,250 Descending San Juan Center
Tue 01:10:10 PM 18.6667 -65.4333 130° Southeast 360 414 9,300 -2,826 Descending San Juan Center
Tue 01:11:11 PM 18.5833 -65.3833 150° Southeast 320 368 6,100 -2,727 Descending San Juan Center
Tue 01:12:11 PM 18.5167 -65.3333 145° Southeast 310 357 3,800 -1,400 Descending San Juan Center
Tue 01:13:11 PM 18.4500 -65.2833 145° Southeast 270 311 3,300 -496 Descending San Juan Center
Tue 01:14:12 PM 18.4000 -65.2333 136° Southeast 240 276 2,800 -248 Descending San Juan Center
Tue 01:15:12 PM 18.3500 -65.2000 148° Southeast 230 265 2,800  Level San Juan Center

Login

Don't have an account? Register now (free) for customized features, flight alerts, and more!